createdAt,value
2018-06-05T00:00:33.967Z,76.00
2018-06-05T00:03:03.539Z,76.10
2018-06-05T00:05:33.036Z,75.50
2018-06-05T00:08:02.541Z,75.50
2018-06-05T00:13:01.067Z,75.50
2018-06-05T00:15:30.584Z,74.90
2018-06-05T00:18:00.166Z,74.20
2018-06-05T00:20:29.755Z,74.20
2018-06-05T00:25:28.173Z,73.70
2018-06-05T00:27:57.713Z,74.50
2018-06-05T00:30:27.883Z,75.20
2018-06-05T00:37:55.457Z,75.70
2018-06-05T00:42:53.863Z,75.30
2018-06-05T00:47:52.602Z,74.20
2018-06-05T00:50:22.088Z,74.90
2018-06-05T00:52:51.662Z,75.20
2018-06-05T00:55:21.202Z,75.20
2018-06-05T00:57:50.734Z,75.50
2018-06-05T01:00:20.308Z,75.50
2018-06-05T01:02:49.820Z,75.60
2018-06-05T01:05:19.349Z,75.60
2018-06-05T01:07:48.857Z,76.00
2018-06-05T01:10:18.407Z,75.70
2018-06-05T01:15:16.938Z,75.60
2018-06-05T01:17:46.524Z,75.10
2018-06-05T01:20:16.006Z,74.70
2018-06-05T01:22:45.566Z,74.80
2018-06-05T01:25:15.067Z,76.10
2018-06-05T01:27:45.145Z,75.70
2018-06-05T01:32:43.586Z,75.90
2018-06-05T01:35:13.118Z,76.70
2018-06-05T01:37:42.882Z,76.70
2018-06-05T01:40:12.389Z,76.70
2018-06-05T01:42:41.935Z,76.00
2018-06-05T01:45:11.459Z,75.60
2018-06-05T01:50:11.122Z,75.70
2018-06-05T01:52:40.622Z,75.90
2018-06-05T01:55:10.151Z,75.40
2018-06-05T01:57:39.635Z,75.50
2018-06-05T02:00:09.306Z,75.10
2018-06-05T02:05:07.714Z,75.30
2018-06-05T02:10:06.322Z,75.80
2018-06-05T02:12:35.854Z,75.50
2018-06-05T02:15:05.535Z,75.80
2018-06-05T02:17:35.346Z,76.50
2018-06-05T02:20:04.916Z,76.50
2018-06-05T02:22:34.915Z,76.50
2018-06-05T02:25:04.467Z,75.60
2018-06-05T02:27:34.474Z,75.90
2018-06-05T02:32:32.921Z,76.40
2018-06-05T02:35:02.508Z,76.00
2018-06-05T02:37:32.017Z,75.80
2018-06-05T02:40:01.497Z,76.20
2018-06-05T02:42:31.066Z,76.10
2018-06-05T02:45:00.583Z,76.50
2018-06-05T02:49:59.294Z,77.10
2018-06-05T02:54:57.766Z,76.70
2018-06-05T02:57:27.304Z,75.80
2018-06-05T02:59:56.837Z,76.50
2018-06-05T03:02:26.373Z,75.80
2018-06-05T03:09:04.891Z,76.50
2018-06-05T03:11:35.090Z,78.40
2018-06-05T03:14:15.178Z,78.20
2018-06-05T03:16:45.710Z,77.50
2018-06-05T03:19:15.445Z,77.60
2018-06-05T03:21:45.354Z,78.00
2018-06-05T03:24:42.879Z,78.20
2018-06-05T03:27:16.110Z,78.40
2018-06-05T03:29:45.617Z,77.90
2018-06-05T03:32:15.062Z,77.90
2018-06-05T03:34:44.461Z,77.90
2018-06-05T03:37:14.086Z,78.00
2018-06-05T03:39:43.535Z,78.30
2018-06-05T03:42:12.962Z,77.80
2018-06-05T03:47:11.277Z,78.10
2018-06-05T03:49:41.719Z,76.60
2018-06-05T03:52:11.695Z,76.50
2018-06-05T03:54:41.136Z,77.00
2018-06-05T03:57:10.631Z,77.30
2018-06-05T03:59:40.178Z,77.70
2018-06-05T04:02:09.598Z,78.10
2018-06-05T04:04:39.076Z,78.00
2018-06-05T04:07:09.005Z,78.10
2018-06-05T04:09:40.461Z,78.40
2018-06-05T04:14:38.823Z,77.20
2018-06-05T04:17:08.278Z,77.00
2018-06-05T04:22:06.652Z,78.40
2018-06-05T04:24:36.109Z,77.60
2018-06-05T04:27:06.528Z,77.60
2018-06-05T04:32:04.913Z,78.30
2018-06-05T04:34:34.321Z,77.60
2018-06-05T04:37:04.014Z,77.70
2018-06-05T04:42:02.300Z,76.30
2018-06-05T04:44:32.120Z,76.60
2018-06-05T04:54:28.609Z,76.60
2018-06-05T04:59:27.398Z,76.70
2018-06-05T05:01:56.801Z,77.20
2018-06-05T05:04:42.284Z,77.30
2018-06-05T05:07:11.774Z,77.90
2018-06-05T05:09:41.234Z,78.10
2018-06-05T05:12:10.626Z,78.10
2018-06-05T05:17:08.960Z,79.00
2018-06-05T05:19:39.670Z,78.50
2018-06-05T05:22:09.083Z,78.40
2018-06-05T05:24:38.741Z,77.60
2018-06-05T05:27:08.206Z,78.40
2018-06-05T05:29:37.594Z,78.70
2018-06-05T05:32:07.068Z,80.00
2018-06-05T05:37:05.507Z,80.20
2018-06-05T05:39:34.965Z,80.30
2018-06-05T05:47:02.281Z,81.30
2018-06-05T05:49:32.467Z,80.70
2018-06-05T05:52:01.903Z,81.40
2018-06-05T05:54:31.685Z,81.50
2018-06-05T05:57:01.272Z,81.80
2018-06-05T05:59:31.159Z,82.70
2018-06-05T06:02:00.622Z,81.90
2018-06-05T06:04:30.376Z,81.70
2018-06-05T06:06:59.970Z,81.40
2018-06-05T06:09:29.674Z,81.80
2018-06-05T06:11:59.150Z,81.90
2018-06-05T06:14:28.615Z,81.50
2018-06-05T06:16:58.023Z,80.20
2018-06-05T06:19:27.522Z,80.90
2018-06-05T06:21:56.925Z,81.40
2018-06-05T06:24:27.121Z,81.70
2018-06-05T06:26:56.627Z,81.00
2018-06-05T06:29:26.105Z,81.50
2018-06-05T06:34:24.360Z,81.50
2018-06-05T06:36:53.801Z,81.90
2018-06-05T06:41:52.136Z,79.00
2018-06-05T06:44:21.536Z,78.40
2018-06-05T06:46:50.952Z,78.20
2018-06-05T06:49:20.394Z,77.50
2018-06-05T06:51:49.854Z,76.50
2018-06-05T06:54:19.305Z,76.20
2018-06-05T06:56:48.851Z,76.60
2018-06-05T06:59:18.252Z,77.20
2018-06-05T07:01:47.703Z,75.20
2018-06-05T07:04:17.180Z,75.20
2018-06-05T07:06:46.591Z,73.40
2018-06-05T07:09:16.179Z,72.50
2018-06-05T07:11:45.606Z,72.70
2018-06-05T07:14:15.070Z,73.50
2018-06-05T07:16:44.627Z,73.00
2018-06-05T07:19:14.124Z,72.30
2018-06-05T07:21:43.572Z,71.90
2018-06-05T07:26:41.877Z,71.00
2018-06-05T07:31:40.198Z,71.10
2018-06-05T07:34:09.736Z,71.60
2018-06-05T07:36:39.126Z,71.20
2018-06-05T07:39:09.443Z,69.70
2018-06-05T07:41:39.398Z,70.10
2018-06-05T07:44:08.836Z,69.50
2018-06-05T07:46:38.260Z,70.70
2018-06-05T07:49:07.706Z,69.00
2018-06-05T07:51:37.176Z,68.70
2018-06-05T07:54:06.822Z,69.10
2018-06-05T07:56:36.220Z,69.40
2018-06-05T07:59:05.683Z,68.90
2018-06-05T08:01:35.146Z,69.20
2018-06-05T08:09:25.355Z,67.00
2018-06-05T08:11:55.256Z,67.40
2018-06-05T08:14:24.767Z,67.90
2018-06-05T08:16:54.246Z,66.50
2018-06-05T08:19:23.690Z,67.10
2018-06-05T08:21:53.467Z,66.50
2018-06-05T08:24:22.883Z,67.00
2018-06-05T08:26:53.925Z,67.60
2018-06-05T08:29:23.519Z,66.30
2018-06-05T08:31:52.925Z,64.70
2018-06-05T08:34:22.310Z,63.60
2018-06-05T08:36:51.777Z,63.90
2018-06-05T08:41:50.087Z,64.70
2018-06-05T08:44:19.536Z,66.30
2018-06-05T08:46:48.972Z,64.40
2018-06-05T08:49:18.412Z,64.60
2018-06-05T08:51:47.840Z,64.00
2018-06-05T08:54:17.435Z,62.00
2018-06-05T08:56:46.850Z,62.70
2018-06-05T08:59:16.517Z,59.80
2018-06-05T09:04:14.886Z,60.80
2018-06-05T09:06:44.367Z,62.40
2018-06-05T09:09:13.849Z,61.50
2018-06-05T09:11:43.335Z,60.20
2018-06-05T09:14:12.736Z,60.90
2018-06-05T09:16:42.265Z,60.90
2018-06-05T09:19:11.651Z,59.00
2018-06-05T09:21:41.058Z,59.50
2018-06-05T09:24:10.589Z,59.90
2018-06-05T09:26:40.001Z,59.30
2018-06-05T09:29:09.425Z,61.30
2018-06-05T09:31:38.877Z,58.80
2018-06-05T09:34:08.296Z,58.80
2018-06-05T09:36:37.733Z,57.60
2018-06-05T09:39:09.274Z,59.10
2018-06-05T09:41:38.761Z,60.20
2018-06-05T09:44:08.235Z,58.60
2018-06-05T09:49:06.550Z,56.30
2018-06-05T09:51:36.100Z,55.10
2018-06-05T09:54:05.541Z,57.70
2018-06-05T09:59:03.900Z,59.30
2018-06-05T10:01:33.309Z,57.20
2018-06-05T10:04:02.758Z,58.80
2018-06-05T10:06:32.182Z,60.20
2018-06-05T10:09:01.616Z,59.00
2018-06-05T10:11:31.096Z,57.80
2018-06-05T10:14:00.510Z,54.30
2018-06-05T10:16:29.951Z,54.80
2018-06-05T10:18:59.344Z,56.10
2018-06-05T10:21:29.148Z,56.90
2018-06-05T10:23:58.583Z,54.90
2018-06-05T10:26:28.003Z,54.80
2018-06-05T10:28:57.510Z,55.50
2018-06-05T10:31:26.909Z,56.30
2018-06-05T10:33:56.372Z,55.90
2018-06-05T10:36:25.784Z,55.30
2018-06-05T10:38:55.179Z,51.40
2018-06-05T10:41:24.617Z,51.70
2018-06-05T10:43:54.017Z,52.30
2018-06-05T10:46:23.569Z,56.10
2018-06-05T10:48:52.969Z,49.50
2018-06-05T10:51:22.386Z,52.90
2018-06-05T10:53:51.922Z,49.10
2018-06-05T10:56:21.340Z,48.00
2018-06-05T11:01:19.678Z,51.30
2018-06-05T11:03:49.086Z,51.50
2018-06-05T11:06:26.317Z,50.20
2018-06-05T11:08:55.890Z,52.20
2018-06-05T11:11:42.160Z,50.20
2018-06-05T11:14:28.134Z,52.40
2018-06-05T11:17:11.305Z,51.60
2018-06-05T11:22:27.774Z,51.30
2018-06-05T11:32:30.118Z,53.00
2018-06-05T11:34:59.513Z,48.50
2018-06-05T11:37:29.381Z,48.00
2018-06-05T11:39:58.773Z,50.50
2018-06-05T11:42:28.203Z,52.10
2018-06-05T11:44:57.659Z,50.00
2018-06-05T11:47:27.065Z,49.20
2018-06-05T11:49:56.610Z,50.30
2018-06-05T11:52:26.058Z,50.20
2018-06-05T11:54:55.771Z,48.50
2018-06-05T11:57:25.244Z,50.80
2018-06-05T11:59:55.848Z,48.60
2018-06-05T12:02:25.441Z,50.30
2018-06-05T12:04:55.139Z,51.00
2018-06-05T12:07:24.993Z,49.80
2018-06-05T12:09:54.408Z,49.00
2018-06-05T12:14:53.305Z,51.90
2018-06-05T12:17:22.710Z,48.50
2018-06-05T12:19:52.285Z,48.00
2018-06-05T12:22:21.982Z,46.30
2018-06-05T12:24:51.441Z,49.50
2018-06-05T12:29:49.763Z,49.30
2018-06-05T12:32:19.758Z,47.50
2018-06-05T12:39:47.342Z,46.10
2018-06-05T12:44:45.731Z,49.30
2018-06-05T12:47:15.151Z,47.60
2018-06-05T12:52:13.538Z,47.40
2018-06-05T12:54:42.975Z,47.60
2018-06-05T12:57:12.389Z,47.50
2018-06-05T12:59:41.817Z,47.20
2018-06-05T13:02:11.232Z,48.20
2018-06-05T13:04:40.686Z,47.50
2018-06-05T13:07:10.129Z,42.50
2018-06-05T13:09:39.592Z,42.40
2018-06-05T13:12:09.476Z,44.20
2018-06-05T13:14:41.108Z,44.10
2018-06-05T13:17:11.905Z,43.80
2018-06-05T13:19:41.311Z,45.00
2018-06-05T13:22:10.772Z,50.50
2018-06-05T13:24:40.195Z,48.50
2018-06-05T13:27:09.611Z,49.10
2018-06-05T13:29:40.338Z,48.70
2018-06-05T13:34:38.720Z,50.30
2018-06-05T13:39:37.631Z,49.10
2018-06-05T13:44:36.745Z,47.00
2018-06-05T13:49:35.848Z,49.60
2018-06-05T13:52:05.277Z,50.40
2018-06-05T13:54:35.157Z,50.70
2018-06-05T13:57:04.680Z,48.30
2018-06-05T14:02:03.459Z,49.70
2018-06-05T14:04:48.339Z,50.00
2018-06-05T14:10:00.841Z,49.50
2018-06-05T14:12:34.491Z,46.20
2018-06-05T14:17:33.300Z,48.60
2018-06-05T14:20:02.734Z,48.80
2018-06-05T14:22:32.435Z,49.40
2018-06-05T14:25:01.914Z,50.00
2018-06-05T14:27:31.562Z,49.90
2018-06-05T14:30:01.011Z,48.70
2018-06-05T14:33:01.553Z,50.30
2018-06-05T14:35:30.976Z,49.10
2018-06-05T14:38:00.441Z,51.00
2018-06-05T14:40:37.008Z,50.60
2018-06-05T14:43:06.749Z,52.40
2018-06-05T14:45:37.023Z,50.70
2018-06-05T14:48:06.555Z,52.90
2018-06-05T14:53:05.110Z,51.30
2018-06-05T14:55:34.632Z,52.50
2018-06-05T15:00:55.600Z,52.20
2018-06-05T15:03:46.906Z,52.80
2018-06-05T15:08:58.706Z,52.50
2018-06-05T15:11:33.994Z,50.10
2018-06-05T15:14:10.303Z,50.70
2018-06-05T15:16:44.118Z,49.40
2018-06-05T15:21:43.210Z,48.00
2018-06-05T15:24:13.405Z,49.60
2018-06-05T15:26:43.329Z,51.40
2018-06-05T15:29:13.171Z,50.50
2018-06-05T15:34:12.289Z,51.50
2018-06-05T15:36:42.204Z,51.80
2018-06-05T15:39:12.058Z,51.40
2018-06-05T15:41:41.956Z,51.30
2018-06-05T15:44:13.077Z,51.60
2018-06-05T15:46:43.120Z,49.90
2018-06-05T15:49:13.612Z,50.90
2018-06-05T15:54:34.683Z,52.80
2018-06-05T15:57:05.606Z,52.70
2018-06-05T15:59:41.098Z,54.10
2018-06-05T16:02:21.520Z,53.70
2018-06-05T16:04:51.572Z,53.60
2018-06-05T16:07:21.588Z,53.40
2018-06-05T16:09:51.393Z,53.40
2018-06-05T16:12:24.313Z,53.70
2018-06-05T16:14:56.163Z,52.80
2018-06-05T16:17:26.485Z,53.30
2018-06-05T16:22:27.501Z,52.90
2018-06-05T16:25:00.744Z,52.90
2018-06-05T16:27:37.118Z,53.70
2018-06-05T16:30:10.850Z,54.70
2018-06-05T16:32:45.922Z,55.00
2018-06-05T16:35:16.473Z,54.20
2018-06-05T16:40:16.683Z,54.60
2018-06-05T16:42:46.505Z,53.10
2018-06-05T16:45:16.530Z,55.30
2018-06-05T16:50:15.775Z,53.70
2018-06-05T16:52:45.730Z,54.10
2018-06-05T16:55:15.654Z,54.10
2018-06-05T16:57:45.584Z,54.90
2018-06-05T17:02:44.546Z,53.50
2018-06-05T17:05:14.559Z,54.30
2018-06-05T17:07:44.385Z,53.00
2018-06-05T17:10:14.261Z,53.00
2018-06-05T19:38:23.412Z,68.50
2018-06-05T19:40:52.944Z,68.40
2018-06-05T19:43:22.576Z,68.30
2018-06-05T19:45:52.283Z,68.30
2018-06-05T19:48:21.861Z,68.50
2018-06-05T19:50:51.394Z,68.70
2018-06-05T19:53:20.985Z,69.50
2018-06-05T19:55:50.625Z,69.50
2018-06-05T19:58:20.553Z,69.80
2018-06-05T20:03:19.267Z,70.00
2018-06-05T20:05:48.962Z,69.60
2018-06-05T20:10:47.839Z,70.90
2018-06-05T20:13:17.384Z,70.40
2018-06-05T20:18:24.894Z,70.70
2018-06-05T20:20:57.476Z,71.10
2018-06-05T20:26:37.611Z,71.50
2018-06-05T20:29:13.073Z,72.10
2018-06-05T20:31:42.674Z,71.80
2018-06-05T20:36:51.441Z,72.10
2018-06-05T20:39:21.338Z,72.90
2018-06-05T20:41:53.603Z,72.90
2018-06-05T20:44:23.308Z,72.90
2018-06-05T20:46:52.877Z,73.50
2018-06-05T20:49:22.571Z,73.40
2018-06-05T20:51:52.178Z,73.50
2018-06-05T20:54:24.295Z,73.70
2018-06-05T20:56:54.014Z,74.00
2018-06-05T20:59:23.628Z,74.80
2018-06-05T21:01:53.205Z,74.40
2018-06-05T21:04:22.811Z,73.90
2018-06-05T21:06:52.342Z,73.60
2018-06-05T21:09:23.619Z,74.20
2018-06-05T21:11:53.205Z,74.10
2018-06-05T21:14:22.872Z,74.20
2018-06-05T21:16:52.682Z,73.90
2018-06-05T21:19:22.295Z,74.20
2018-06-05T21:24:22.706Z,74.50
2018-06-05T21:26:52.373Z,74.80
2018-06-05T21:29:21.935Z,74.90
2018-06-05T21:31:51.587Z,75.20
2018-06-05T21:34:21.188Z,75.40
2018-06-05T21:36:50.831Z,75.50
2018-06-05T21:39:20.432Z,75.50
2018-06-05T21:41:50.519Z,76.00
2018-06-05T21:44:20.094Z,75.90
2018-06-05T21:46:49.703Z,76.20
2018-06-05T21:49:19.352Z,75.90
2018-06-05T21:51:48.906Z,75.90
2018-06-05T21:54:18.525Z,76.20
2018-06-05T21:56:48.114Z,76.20
2018-06-05T21:59:17.719Z,75.70
2018-06-05T22:01:47.293Z,76.50
2018-06-05T22:04:16.911Z,76.80
2018-06-05T22:06:46.499Z,76.90
2018-06-05T22:09:16.603Z,76.90
2018-06-05T22:11:46.149Z,77.10
2018-06-05T22:14:16.239Z,77.70
2018-06-05T22:16:45.889Z,77.70
2018-06-05T22:19:15.972Z,77.80
2018-06-05T22:21:45.650Z,77.30
2018-06-05T22:24:15.547Z,77.70
2018-06-05T22:26:45.181Z,77.70
2018-06-05T22:29:15.016Z,77.80
2018-06-05T22:31:44.708Z,78.30
2018-06-05T22:34:14.459Z,78.60
2018-06-05T22:36:44.184Z,78.80
2018-06-05T22:39:13.877Z,78.10
2018-06-05T22:41:43.545Z,78.50
2018-06-05T22:44:13.296Z,79.00
2018-06-05T22:46:43.458Z,79.00
2018-06-05T22:49:13.131Z,79.00
2018-06-05T22:51:42.957Z,79.10
2018-06-05T22:56:41.697Z,79.10
2018-06-05T22:59:11.451Z,79.00
2018-06-05T23:01:42.145Z,79.00
2018-06-05T23:04:11.962Z,79.00
2018-06-05T23:06:41.626Z,79.30
2018-06-05T23:11:40.382Z,79.40
2018-06-05T23:14:10.048Z,79.10
2018-06-05T23:16:39.775Z,79.30
2018-06-05T23:19:09.402Z,79.50
2018-06-05T23:21:39.176Z,79.50
2018-06-05T23:24:08.878Z,79.50
2018-06-05T23:29:07.988Z,79.60
2018-06-05T23:34:06.712Z,79.40
2018-06-05T23:36:36.549Z,79.60
2018-06-05T23:39:08.237Z,79.90
2018-06-05T23:41:37.951Z,79.80
2018-06-05T23:46:36.757Z,79.90
2018-06-05T23:49:06.439Z,80.00
2018-06-05T23:51:36.177Z,80.20
2018-06-05T23:56:35.109Z,80.50
2018-06-05T23:59:04.841Z,80.20
